sensor_id;sensor_type;location;lat;lon;timestamp;pressure;altitude;pressure_sealevel;temperature
68440;BMP180;55421;51.600;5.718;2022-08-19T00:01:54;225598.80;;;19.90
68440;BMP180;55421;51.600;5.718;2022-08-19T00:04:27;225614.00;;;19.90
68440;BMP180;55421;51.600;5.718;2022-08-19T00:06:54;225632.80;;;19.90
68440;BMP180;55421;51.600;5.718;2022-08-19T00:09:23;225638.41;;;19.90
68440;BMP180;55421;51.600;5.718;2022-08-19T00:11:51;225628.41;;;19.90
68440;BMP180;55421;51.600;5.718;2022-08-19T00:14:19;225618.80;;;19.90
68440;BMP180;55421;51.600;5.718;2022-08-19T00:16:48;225607.59;;;19.90
68440;BMP180;55421;51.600;5.718;2022-08-19T00:19:16;225587.59;;;19.80
68440;BMP180;55421;51.600;5.718;2022-08-19T00:21:43;225542.80;;;19.70
68440;BMP180;55421;51.600;5.718;2022-08-19T00:24:13;225518.00;;;19.70
68440;BMP180;55421;51.600;5.718;2022-08-19T00:26:40;225496.80;;;19.70
68440;BMP180;55421;51.600;5.718;2022-08-19T00:29:10;225517.59;;;19.70
68440;BMP180;55421;51.600;5.718;2022-08-19T00:31:38;225541.59;;;19.70
68440;BMP180;55421;51.600;5.718;2022-08-19T00:34:05;225527.59;;;19.70
68440;BMP180;55421;51.600;5.718;2022-08-19T00:36:31;225481.41;;;19.60
68440;BMP180;55421;51.600;5.718;2022-08-19T00:39:00;225451.80;;;19.60
68440;BMP180;55421;51.600;5.718;2022-08-19T00:41:27;225403.20;;;19.50
68440;BMP180;55421;51.600;5.718;2022-08-19T00:44:17;225363.59;;;19.40
68440;BMP180;55421;51.600;5.718;2022-08-19T00:46:49;225360.41;;;19.40
68440;BMP180;55421;51.600;5.718;2022-08-19T00:49:22;225355.59;;;19.40
68440;BMP180;55421;51.600;5.718;2022-08-19T00:51:56;225340.00;;;19.40
68440;BMP180;55421;51.600;5.718;2022-08-19T00:54:23;225339.59;;;19.40
68440;BMP180;55421;51.600;5.718;2022-08-19T00:56:51;225336.80;;;19.40
68440;BMP180;55421;51.600;5.718;2022-08-19T00:59:18;225314.20;;;19.34
68440;BMP180;55421;51.600;5.718;2022-08-19T01:01:46;225307.00;;;19.30
68440;BMP180;55421;51.600;5.718;2022-08-19T01:04:13;225302.59;;;19.30
68440;BMP180;55421;51.600;5.718;2022-08-19T01:06:42;225299.80;;;19.30
68440;BMP180;55421;51.600;5.718;2022-08-19T01:09:09;225305.41;;;19.30
68440;BMP180;55421;51.600;5.718;2022-08-19T01:11:41;225320.00;;;19.40
68440;BMP180;55421;51.600;5.718;2022-08-19T01:14:10;225357.20;;;19.40
68440;BMP180;55421;51.600;5.718;2022-08-19T01:16:38;225368.41;;;19.42
68440;BMP180;55421;51.600;5.718;2022-08-19T01:19:21;225366.80;;;19.40
68440;BMP180;55421;51.600;5.718;2022-08-19T01:21:59;225349.59;;;19.40
68440;BMP180;55421;51.600;5.718;2022-08-19T01:24:28;225348.41;;;19.40
68440;BMP180;55421;51.600;5.718;2022-08-19T01:26:57;225336.41;;;19.40
68440;BMP180;55421;51.600;5.718;2022-08-19T01:29:24;225348.41;;;19.40
68440;BMP180;55421;51.600;5.718;2022-08-19T01:31:50;225341.20;;;19.40
68440;BMP180;55421;51.600;5.718;2022-08-19T01:34:19;225344.00;;;19.40
68440;BMP180;55421;51.600;5.718;2022-08-19T01:36:47;225296.59;;;19.30
68440;BMP180;55421;51.600;5.718;2022-08-19T01:39:21;225234.59;;;19.20
68440;BMP180;55421;51.600;5.718;2022-08-19T01:41:48;225172.00;;;19.10
68440;BMP180;55421;51.600;5.718;2022-08-19T01:44:16;225139.80;;;19.00
68440;BMP180;55421;51.600;5.718;2022-08-19T01:46:48;225128.20;;;19.00
68440;BMP180;55421;51.600;5.718;2022-08-19T01:49:18;225136.59;;;19.00
68440;BMP180;55421;51.600;5.718;2022-08-19T01:51:47;225155.80;;;19.08
68440;BMP180;55421;51.600;5.718;2022-08-19T01:54:16;225155.80;;;19.10
68440;BMP180;55421;51.600;5.718;2022-08-19T01:56:43;225152.59;;;19.08
68440;BMP180;55421;51.600;5.718;2022-08-19T01:59:15;225108.20;;;19.00
68440;BMP180;55421;51.600;5.718;2022-08-19T02:01:42;225027.20;;;18.80
68440;BMP180;55421;51.600;5.718;2022-08-19T02:04:09;224972.41;;;18.70
68440;BMP180;55421;51.600;5.718;2022-08-19T02:06:36;224950.41;;;18.70
68440;BMP180;55421;51.600;5.718;2022-08-19T02:09:05;224929.41;;;18.68
68440;BMP180;55421;51.600;5.718;2022-08-19T02:11:35;224915.41;;;18.60
68440;BMP180;55421;51.600;5.718;2022-08-19T02:14:05;224918.59;;;18.62
68440;BMP180;55421;51.600;5.718;2022-08-19T02:16:33;224944.00;;;18.70
68440;BMP180;55421;51.600;5.718;2022-08-19T02:19:00;224922.41;;;18.66
68440;BMP180;55421;51.600;5.718;2022-08-19T02:21:28;224899.00;;;18.60
68440;BMP180;55421;51.600;5.718;2022-08-19T02:23:56;224859.80;;;18.52
68440;BMP180;55421;51.600;5.718;2022-08-19T02:26:23;224843.41;;;18.50
68440;BMP180;55421;51.600;5.718;2022-08-19T02:28:50;224836.00;;;18.50
68440;BMP180;55421;51.600;5.718;2022-08-19T02:31:20;224819.59;;;18.50
68440;BMP180;55421;51.600;5.718;2022-08-19T02:33:47;224811.59;;;18.44
68440;BMP180;55421;51.600;5.718;2022-08-19T02:36:16;224805.20;;;18.42
68440;BMP180;55421;51.600;5.718;2022-08-19T02:38:44;224813.20;;;18.48
68440;BMP180;55421;51.600;5.718;2022-08-19T02:41:17;224803.59;;;18.40
68440;BMP180;55421;51.600;5.718;2022-08-19T02:43:44;224798.80;;;18.40
68440;BMP180;55421;51.600;5.718;2022-08-19T02:46:24;224803.59;;;18.40
68440;BMP180;55421;51.600;5.718;2022-08-19T02:48:54;224822.80;;;18.50
68440;BMP180;55421;51.600;5.718;2022-08-19T02:51:28;224822.80;;;18.50
68440;BMP180;55421;51.600;5.718;2022-08-19T02:53:56;224811.59;;;18.46
68440;BMP180;55421;51.600;5.718;2022-08-19T02:56:23;224790.80;;;18.40
68440;BMP180;55421;51.600;5.718;2022-08-19T02:58:50;224780.41;;;18.40
68440;BMP180;55421;51.600;5.718;2022-08-19T03:01:28;224739.20;;;18.30
68440;BMP180;55421;51.600;5.718;2022-08-19T03:03:56;224690.20;;;18.20
68440;BMP180;55421;51.600;5.718;2022-08-19T03:06:23;224655.20;;;18.20
68440;BMP180;55421;51.600;5.718;2022-08-19T03:08:50;224637.59;;;18.10
68440;BMP180;55421;51.600;5.718;2022-08-19T03:11:25;224631.20;;;18.10
68440;BMP180;55421;51.600;5.718;2022-08-19T03:13:53;224639.20;;;18.16
68440;BMP180;55421;51.600;5.718;2022-08-19T03:16:24;224650.00;;;18.20
68440;BMP180;55421;51.600;5.718;2022-08-19T03:18:53;224657.20;;;18.20
68440;BMP180;55421;51.600;5.718;2022-08-19T03:21:24;224661.59;;;18.20
68440;BMP180;55421;51.600;5.718;2022-08-19T03:23:56;224660.00;;;18.20
68440;BMP180;55421;51.600;5.718;2022-08-19T03:26:23;224660.00;;;18.20
68440;BMP180;55421;51.600;5.718;2022-08-19T03:28:50;224664.20;;;18.20
68440;BMP180;55421;51.600;5.718;2022-08-19T03:31:22;224657.20;;;18.20
68440;BMP180;55421;51.600;5.718;2022-08-19T03:33:51;224642.80;;;18.20
68440;BMP180;55421;51.600;5.718;2022-08-19T03:36:23;224631.20;;;18.10
68440;BMP180;55421;51.600;5.718;2022-08-19T03:38:54;224596.41;;;18.10
68440;BMP180;55421;51.600;5.718;2022-08-19T03:41:29;224586.41;;;18.00
68440;BMP180;55421;51.600;5.718;2022-08-19T03:43:58;224556.80;;;18.00
68440;BMP180;55421;51.600;5.718;2022-08-19T03:46:31;224524.59;;;17.94
68440;BMP180;55421;51.600;5.718;2022-08-19T03:49:00;224501.00;;;17.90
68440;BMP180;55421;51.600;5.718;2022-08-19T03:51:37;224481.80;;;17.90
68440;BMP180;55421;51.600;5.718;2022-08-19T03:54:11;224478.59;;;17.90
68440;BMP180;55421;51.600;5.718;2022-08-19T03:56:41;224471.00;;;17.90
68440;BMP180;55421;51.600;5.718;2022-08-19T03:59:14;224459.80;;;17.82
68440;BMP180;55421;51.600;5.718;2022-08-19T04:01:41;224461.00;;;17.82
68440;BMP180;55421;51.600;5.718;2022-08-19T04:04:08;224437.80;;;17.80
68440;BMP180;55421;51.600;5.718;2022-08-19T04:06:37;224424.20;;;17.80
68440;BMP180;55421;51.600;5.718;2022-08-19T04:09:10;224448.59;;;17.80
68440;BMP180;55421;51.600;5.718;2022-08-19T04:11:45;224481.80;;;17.90
68440;BMP180;55421;51.600;5.718;2022-08-19T04:14:17;224486.59;;;17.90
68440;BMP180;55421;51.600;5.718;2022-08-19T04:16:47;224481.80;;;17.90
68440;BMP180;55421;51.600;5.718;2022-08-19T04:19:16;224448.59;;;17.80
68440;BMP180;55421;51.600;5.718;2022-08-19T04:21:46;224427.00;;;17.80
68440;BMP180;55421;51.600;5.718;2022-08-19T04:24:13;224397.00;;;17.70
68440;BMP180;55421;51.600;5.718;2022-08-19T04:26:40;224396.00;;;17.70
68440;BMP180;55421;51.600;5.718;2022-08-19T04:29:15;224392.80;;;17.70
68440;BMP180;55421;51.600;5.718;2022-08-19T04:31:43;224411.41;;;17.74
68440;BMP180;55421;51.600;5.718;2022-08-19T04:34:15;224410.00;;;17.74
68440;BMP180;55421;51.600;5.718;2022-08-19T04:36:43;224425.41;;;17.80
68440;BMP180;55421;51.600;5.718;2022-08-19T04:39:19;224440.59;;;17.80
68440;BMP180;55421;51.600;5.718;2022-08-19T04:41:47;224440.59;;;17.80
68440;BMP180;55421;51.600;5.718;2022-08-19T04:44:35;224411.41;;;17.70
68440;BMP180;55421;51.600;5.718;2022-08-19T04:47:03;224388.00;;;17.70
68440;BMP180;55421;51.600;5.718;2022-08-19T04:49:31;224385.20;;;17.70
68440;BMP180;55421;51.600;5.718;2022-08-19T04:51:57;224396.00;;;17.70
68440;BMP180;55421;51.600;5.718;2022-08-19T04:54:24;224388.00;;;17.70
68440;BMP180;55421;51.600;5.718;2022-08-19T04:56:53;224414.59;;;17.80
68440;BMP180;55421;51.600;5.718;2022-08-19T04:59:20;224437.41;;;17.80
68440;BMP180;55421;51.600;5.718;2022-08-19T05:01:48;224439.00;;;17.80
68440;BMP180;55421;51.600;5.718;2022-08-19T05:04:19;224477.00;;;17.90
68440;BMP180;55421;51.600;5.718;2022-08-19T05:06:48;224546.80;;;18.00
68440;BMP180;55421;51.600;5.718;2022-08-19T05:09:16;224614.00;;;18.10
68440;BMP180;55421;51.600;5.718;2022-08-19T05:11:43;224655.59;;;18.20
68440;BMP180;55421;51.600;5.718;2022-08-19T05:14:11;224678.41;;;18.20
68440;BMP180;55421;51.600;5.718;2022-08-19T05:16:40;224689.00;;;18.20
68440;BMP180;55421;51.600;5.718;2022-08-19T05:19:07;224692.20;;;18.20
68440;BMP180;55421;51.600;5.718;2022-08-19T05:21:52;224709.41;;;18.30
68440;BMP180;55421;51.600;5.718;2022-08-19T05:24:37;224745.20;;;18.30
68440;BMP180;55421;51.600;5.718;2022-08-19T05:27:04;224798.80;;;18.40
68440;BMP180;55421;51.600;5.718;2022-08-19T05:29:33;224841.59;;;18.50
68440;BMP180;55421;51.600;5.718;2022-08-19T05:32:03;224880.59;;;18.60
68440;BMP180;55421;51.600;5.718;2022-08-19T05:34:31;224900.59;;;18.60
68440;BMP180;55421;51.600;5.718;2022-08-19T05:37:00;224940.20;;;18.70
68440;BMP180;55421;51.600;5.718;2022-08-19T05:39:30;225000.41;;;18.80
68440;BMP180;55421;51.600;5.718;2022-08-19T05:42:05;225054.20;;;18.90
68440;BMP180;55421;51.600;5.718;2022-08-19T05:44:38;225116.20;;;19.00
68440;BMP180;55421;51.600;5.718;2022-08-19T05:47:07;225166.80;;;19.10
68440;BMP180;55421;51.600;5.718;2022-08-19T05:49:36;225228.20;;;19.20
68440;BMP180;55421;51.600;5.718;2022-08-19T05:52:08;225266.59;;;19.28
68440;BMP180;55421;51.600;5.718;2022-08-19T05:54:38;225291.80;;;19.30
68440;BMP180;55421;51.600;5.718;2022-08-19T05:57:07;225303.80;;;19.30
68440;BMP180;55421;51.600;5.718;2022-08-19T05:59:34;225340.80;;;19.40
68440;BMP180;55421;51.600;5.718;2022-08-19T06:02:04;225378.00;;;19.48
68440;BMP180;55421;51.600;5.718;2022-08-19T06:04:31;225416.00;;;19.50
68440;BMP180;55421;51.600;5.718;2022-08-19T06:06:57;225454.59;;;19.60
68440;BMP180;55421;51.600;5.718;2022-08-19T06:09:24;225458.41;;;19.60
68440;BMP180;55421;51.600;5.718;2022-08-19T06:11:55;225473.41;;;19.60
68440;BMP180;55421;51.600;5.718;2022-08-19T06:14:29;225483.00;;;19.60
68440;BMP180;55421;51.600;5.718;2022-08-19T06:16:57;225486.20;;;19.64
68440;BMP180;55421;51.600;5.718;2022-08-19T06:19:25;225527.20;;;19.70
68440;BMP180;55421;51.600;5.718;2022-08-19T06:21:52;225547.20;;;19.70
68440;BMP180;55421;51.600;5.718;2022-08-19T06:24:22;225567.59;;;19.80
68440;BMP180;55421;51.600;5.718;2022-08-19T06:26:53;225572.41;;;19.80
68440;BMP180;55421;51.600;5.718;2022-08-19T06:29:23;225604.41;;;19.90
68440;BMP180;55421;51.600;5.718;2022-08-19T06:31:53;225630.00;;;19.90
68440;BMP180;55421;51.600;5.718;2022-08-19T06:34:20;225647.00;;;19.90
68440;BMP180;55421;51.600;5.718;2022-08-19T06:36:50;225684.59;;;20.00
68440;BMP180;55421;51.600;5.718;2022-08-19T06:39:24;225740.00;;;20.10
68440;BMP180;55421;51.600;5.718;2022-08-19T06:41:56;225773.59;;;20.10
68440;BMP180;55421;51.600;5.718;2022-08-19T06:44:26;225805.59;;;20.20
68440;BMP180;55421;51.600;5.718;2022-08-19T06:46:54;225820.59;;;20.20
68440;BMP180;55421;51.600;5.718;2022-08-19T06:49:22;225849.80;;;20.30
68440;BMP180;55421;51.600;5.718;2022-08-19T06:51:50;225903.00;;;20.40
68440;BMP180;55421;51.600;5.718;2022-08-19T06:54:18;225943.00;;;20.50
68440;BMP180;55421;51.600;5.718;2022-08-19T06:56:45;225993.00;;;20.52
68440;BMP180;55421;51.600;5.718;2022-08-19T06:59:19;226005.80;;;20.60
68440;BMP180;55421;51.600;5.718;2022-08-19T07:01:51;226044.20;;;20.62
68440;BMP180;55421;51.600;5.718;2022-08-19T07:04:22;226064.59;;;20.70
68440;BMP180;55421;51.600;5.718;2022-08-19T07:06:57;226112.20;;;20.80
68440;BMP180;55421;51.600;5.718;2022-08-19T07:09:26;226174.00;;;20.86
68440;BMP180;55421;51.600;5.718;2022-08-19T07:11:55;226211.20;;;20.90
68440;BMP180;55421;51.600;5.718;2022-08-19T07:14:26;226225.00;;;20.98
68440;BMP180;55421;51.600;5.718;2022-08-19T07:16:56;226233.41;;;21.00
68440;BMP180;55421;51.600;5.718;2022-08-19T07:19:26;226249.80;;;21.00
68440;BMP180;55421;51.600;5.718;2022-08-19T07:21:55;226279.80;;;21.04
68440;BMP180;55421;51.600;5.718;2022-08-19T07:24:23;226309.59;;;21.10
68440;BMP180;55421;51.600;5.718;2022-08-19T07:26:53;226315.80;;;21.10
68440;BMP180;55421;51.600;5.718;2022-08-19T07:29:21;226294.20;;;21.10
68440;BMP180;55421;51.600;5.718;2022-08-19T07:31:51;226360.00;;;21.20
68440;BMP180;55421;51.600;5.718;2022-08-19T07:34:18;226408.00;;;21.30
68440;BMP180;55421;51.600;5.718;2022-08-19T07:36:45;226451.80;;;21.40
68440;BMP180;55421;51.600;5.718;2022-08-19T07:39:20;226513.20;;;21.50
68440;BMP180;55421;51.600;5.718;2022-08-19T07:41:47;226591.59;;;21.60
68440;BMP180;55421;51.600;5.718;2022-08-19T07:44:15;226602.80;;;21.60
68440;BMP180;55421;51.600;5.718;2022-08-19T07:46:46;226622.59;;;21.70
68440;BMP180;55421;51.600;5.718;2022-08-19T07:49:13;226660.59;;;21.70
68440;BMP180;55421;51.600;5.718;2022-08-19T07:51:56;226732.20;;;21.88
68440;BMP180;55421;51.600;5.718;2022-08-19T07:54:26;226823.80;;;22.00
68440;BMP180;55421;51.600;5.718;2022-08-19T07:56:54;226868.20;;;22.10
68440;BMP180;55421;51.600;5.718;2022-08-19T07:59:21;226900.20;;;22.20
68440;BMP180;55421;51.600;5.718;2022-08-19T08:01:50;226931.80;;;22.20
68440;BMP180;55421;51.600;5.718;2022-08-19T08:04:19;226956.41;;;22.24
68440;BMP180;55421;51.600;5.718;2022-08-19T08:07:06;227015.80;;;22.36
68440;BMP180;55421;51.600;5.718;2022-08-19T08:09:52;227090.59;;;22.50
68440;BMP180;55421;51.600;5.718;2022-08-19T08:12:26;227115.59;;;22.52
68440;BMP180;55421;51.600;5.718;2022-08-19T08:15:00;227169.20;;;22.60
68440;BMP180;55421;51.600;5.718;2022-08-19T08:17:31;227198.00;;;22.70
68440;BMP180;55421;51.600;5.718;2022-08-19T08:19:58;227246.00;;;22.80
68440;BMP180;55421;51.600;5.718;2022-08-19T08:22:25;227296.41;;;22.86
68440;BMP180;55421;51.600;5.718;2022-08-19T08:25:20;227343.59;;;22.90
68440;BMP180;55421;51.600;5.718;2022-08-19T08:27:46;227372.41;;;23.00
68440;BMP180;55421;51.600;5.718;2022-08-19T08:30:23;227392.00;;;23.00
68440;BMP180;55421;51.600;5.718;2022-08-19T08:32:51;227420.41;;;23.10
68440;BMP180;55421;51.600;5.718;2022-08-19T08:35:22;227462.20;;;23.12
68440;BMP180;55421;51.600;5.718;2022-08-19T08:37:53;227495.00;;;23.20
68440;BMP180;55421;51.600;5.718;2022-08-19T08:43:33;227566.00;;;23.30
68440;BMP180;55421;51.600;5.718;2022-08-19T08:46:06;227591.59;;;23.40
68440;BMP180;55421;51.600;5.718;2022-08-19T08:48:44;227635.00;;;23.48
68440;BMP180;55421;51.600;5.718;2022-08-19T08:51:21;227691.00;;;23.56
68440;BMP180;55421;51.600;5.718;2022-08-19T08:53:51;227749.80;;;23.60
68440;BMP180;55421;51.600;5.718;2022-08-19T08:56:20;227724.59;;;23.60
68440;BMP180;55421;51.600;5.718;2022-08-19T08:59:09;227697.00;;;23.60
68440;BMP180;55421;51.600;5.718;2022-08-19T09:01:36;227745.00;;;23.62
68440;BMP180;55421;51.600;5.718;2022-08-19T09:04:05;227777.20;;;23.70
68440;BMP180;55421;51.600;5.718;2022-08-19T09:06:48;227791.41;;;23.70
68440;BMP180;55421;51.600;5.718;2022-08-19T09:09:33;227815.41;;;23.80
68440;BMP180;55421;51.600;5.718;2022-08-19T09:12:23;227832.59;;;23.80
68440;BMP180;55421;51.600;5.718;2022-08-19T09:15:05;227892.59;;;23.90
68440;BMP180;55421;51.600;5.718;2022-08-19T09:17:32;227939.80;;;24.00
68440;BMP180;55421;51.600;5.718;2022-08-19T09:20:08;227940.41;;;24.00
68440;BMP180;55421;51.600;5.718;2022-08-19T09:22:42;227987.20;;;24.10
68440;BMP180;55421;51.600;5.718;2022-08-19T09:25:17;227995.20;;;24.10
68440;BMP180;55421;51.600;5.718;2022-08-19T09:27:44;228001.59;;;24.10
68440;BMP180;55421;51.600;5.718;2022-08-19T09:30:18;227928.41;;;24.00
68440;BMP180;55421;51.600;5.718;2022-08-19T09:32:46;227819.00;;;23.78
68440;BMP180;55421;51.600;5.718;2022-08-19T09:35:13;227745.00;;;23.60
68440;BMP180;55421;51.600;5.718;2022-08-19T09:37:42;227745.00;;;23.60
68440;BMP180;55421;51.600;5.718;2022-08-19T09:40:10;227718.20;;;23.60
68440;BMP180;55421;51.600;5.718;2022-08-19T09:42:37;227745.00;;;23.62
68440;BMP180;55421;51.600;5.718;2022-08-19T09:45:05;227841.41;;;23.80
68440;BMP180;55421;51.600;5.718;2022-08-19T09:47:31;227936.00;;;24.00
68440;BMP180;55421;51.600;5.718;2022-08-19T09:50:08;228025.59;;;24.12
68440;BMP180;55421;51.600;5.718;2022-08-19T09:52:35;228141.20;;;24.32
68440;BMP180;55421;51.600;5.718;2022-08-19T09:55:09;228156.41;;;24.40
68440;BMP180;55421;51.600;5.718;2022-08-19T09:57:36;228136.41;;;24.30
68440;BMP180;55421;51.600;5.718;2022-08-19T10:00:07;228151.59;;;24.40
68440;BMP180;55421;51.600;5.718;2022-08-19T10:02:35;228107.20;;;24.30
68440;BMP180;55421;51.600;5.718;2022-08-19T10:05:01;228028.80;;;24.16
68440;BMP180;55421;51.600;5.718;2022-08-19T10:07:47;227990.41;;;24.10
68440;BMP180;55421;51.600;5.718;2022-08-19T10:10:14;227961.59;;;24.00
68440;BMP180;55421;51.600;5.718;2022-08-19T10:12:41;227938.20;;;24.00
68440;BMP180;55421;51.600;5.718;2022-08-19T10:15:12;227895.80;;;23.90
68440;BMP180;55421;51.600;5.718;2022-08-19T10:17:39;227916.59;;;23.92
68440;BMP180;55421;51.600;5.718;2022-08-19T10:20:06;227900.59;;;23.90
68440;BMP180;55421;51.600;5.718;2022-08-19T10:22:33;227907.00;;;23.90
68440;BMP180;55421;51.600;5.718;2022-08-19T10:25:02;227916.20;;;23.90
68440;BMP180;55421;51.600;5.718;2022-08-19T10:27:28;227894.20;;;23.90
68440;BMP180;55421;51.600;5.718;2022-08-19T10:29:54;227851.00;;;23.80
68440;BMP180;55421;51.600;5.718;2022-08-19T10:32:21;227801.41;;;23.70
68440;BMP180;55421;51.600;5.718;2022-08-19T10:34:48;227876.59;;;23.90
68440;BMP180;55421;51.600;5.718;2022-08-19T10:37:17;227870.20;;;23.84
68440;BMP180;55421;51.600;5.718;2022-08-19T10:39:46;227809.41;;;23.78
68440;BMP180;55421;51.600;5.718;2022-08-19T10:42:14;227778.80;;;23.70
68440;BMP180;55421;51.600;5.718;2022-08-19T10:44:42;227834.20;;;23.80
68440;BMP180;55421;51.600;5.718;2022-08-19T10:47:10;227883.00;;;23.90
68440;BMP180;55421;51.600;5.718;2022-08-19T10:49:37;227828.59;;;23.80
68440;BMP180;55421;51.600;5.718;2022-08-19T10:52:23;227827.80;;;23.80
68440;BMP180;55421;51.600;5.718;2022-08-19T10:55:06;227831.80;;;23.80
68440;BMP180;55421;51.600;5.718;2022-08-19T10:57:52;227984.00;;;24.10
68440;BMP180;55421;51.600;5.718;2022-08-19T11:00:21;227968.00;;;24.04
68440;BMP180;55421;51.600;5.718;2022-08-19T11:02:49;228056.20;;;24.20
68440;BMP180;55421;51.600;5.718;2022-08-19T11:05:16;228184.00;;;24.40
68440;BMP180;55421;51.600;5.718;2022-08-19T11:07:44;228204.41;;;24.46
68440;BMP180;55421;51.600;5.718;2022-08-19T11:10:14;228144.41;;;24.38
68440;BMP180;55421;51.600;5.718;2022-08-19T11:12:41;228104.59;;;24.30
68440;BMP180;55421;51.600;5.718;2022-08-19T11:15:09;228067.41;;;24.20
68440;BMP180;55421;51.600;5.718;2022-08-19T11:17:38;228086.59;;;24.24
68440;BMP180;55421;51.600;5.718;2022-08-19T11:20:12;228202.80;;;24.48
68440;BMP180;55421;51.600;5.718;2022-08-19T11:22:39;228235.20;;;24.50
68440;BMP180;55421;51.600;5.718;2022-08-19T11:25:08;228218.80;;;24.50
68440;BMP180;55421;51.600;5.718;2022-08-19T11:27:42;228314.41;;;24.60
68440;BMP180;55421;51.600;5.718;2022-08-19T11:30:12;228308.59;;;24.60
68440;BMP180;55421;51.600;5.718;2022-08-19T11:32:42;228249.80;;;24.50
68440;BMP180;55421;51.600;5.718;2022-08-19T11:35:08;228325.20;;;24.68
68440;BMP180;55421;51.600;5.718;2022-08-19T11:37:36;228402.80;;;24.80
68440;BMP180;55421;51.600;5.718;2022-08-19T11:40:06;228466.59;;;24.90
68440;BMP180;55421;51.600;5.718;2022-08-19T11:42:33;228466.59;;;24.90
68440;BMP180;55421;51.600;5.718;2022-08-19T11:45:18;228441.00;;;24.90
68440;BMP180;55421;51.600;5.718;2022-08-19T11:47:44;228421.59;;;24.84
68440;BMP180;55421;51.600;5.718;2022-08-19T11:50:12;228449.00;;;24.90
68440;BMP180;55421;51.600;5.718;2022-08-19T11:52:38;228536.59;;;25.00
68440;BMP180;55421;51.600;5.718;2022-08-19T11:55:06;228543.00;;;25.08
68440;BMP180;55421;51.600;5.718;2022-08-19T11:57:32;228631.80;;;25.20
68440;BMP180;55421;51.600;5.718;2022-08-19T11:59:59;228646.20;;;25.22
68440;BMP180;55421;51.600;5.718;2022-08-19T12:02:25;228611.20;;;25.20
68440;BMP180;55421;51.600;5.718;2022-08-19T12:04:51;228620.59;;;25.20
68440;BMP180;55421;51.600;5.718;2022-08-19T12:07:18;228649.41;;;25.20
68440;BMP180;55421;51.600;5.718;2022-08-19T12:09:44;228646.20;;;25.20
68440;BMP180;55421;51.600;5.718;2022-08-19T12:12:11;228617.41;;;25.20
68440;BMP180;55421;51.600;5.718;2022-08-19T12:14:37;228617.41;;;25.20
68440;BMP180;55421;51.600;5.718;2022-08-19T12:17:04;228644.59;;;25.20
68440;BMP180;55421;51.600;5.718;2022-08-19T12:19:33;228652.59;;;25.26
68440;BMP180;55421;51.600;5.718;2022-08-19T12:22:00;228692.20;;;25.30
68440;BMP180;55421;51.600;5.718;2022-08-19T12:24:32;228700.20;;;25.30
68440;BMP180;55421;51.600;5.718;2022-08-19T12:26:59;228717.80;;;25.40
68440;BMP180;55421;51.600;5.718;2022-08-19T12:29:28;228746.80;;;25.40
68440;BMP180;55421;51.600;5.718;2022-08-19T12:31:59;228773.20;;;25.50
68440;BMP180;55421;51.600;5.718;2022-08-19T12:34:30;228831.20;;;25.60
68440;BMP180;55421;51.600;5.718;2022-08-19T12:37:03;228885.00;;;25.64
68440;BMP180;55421;51.600;5.718;2022-08-19T12:39:40;228857.80;;;25.60
68440;BMP180;55421;51.600;5.718;2022-08-19T12:42:10;228784.00;;;25.50
68440;BMP180;55421;51.600;5.718;2022-08-19T12:44:41;228768.41;;;25.50
68440;BMP180;55421;51.600;5.718;2022-08-19T12:47:11;228752.20;;;25.40
68440;BMP180;55421;51.600;5.718;2022-08-19T12:49:38;228746.80;;;25.40
68440;BMP180;55421;51.600;5.718;2022-08-19T12:52:08;228744.00;;;25.40
68440;BMP180;55421;51.600;5.718;2022-08-19T12:54:36;228764.80;;;25.44
68440;BMP180;55421;51.600;5.718;2022-08-19T12:57:07;228735.80;;;25.40
68440;BMP180;55421;51.600;5.718;2022-08-19T12:59:38;228739.41;;;25.40
68440;BMP180;55421;51.600;5.718;2022-08-19T13:02:06;228763.20;;;25.48
68440;BMP180;55421;51.600;5.718;2022-08-19T13:04:35;228775.59;;;25.50
68440;BMP180;55421;51.600;5.718;2022-08-19T13:07:03;228766.41;;;25.50
68440;BMP180;55421;51.600;5.718;2022-08-19T13:09:29;228736.59;;;25.40
68440;BMP180;55421;51.600;5.718;2022-08-19T13:11:56;228763.59;;;25.44
68440;BMP180;55421;51.600;5.718;2022-08-19T13:14:23;228787.20;;;25.50
68440;BMP180;55421;51.600;5.718;2022-08-19T13:16:49;228806.41;;;25.50
68440;BMP180;55421;51.600;5.718;2022-08-19T13:19:15;228788.80;;;25.50
68440;BMP180;55421;51.600;5.718;2022-08-19T13:21:42;228814.41;;;25.52
68440;BMP180;55421;51.600;5.718;2022-08-19T13:24:08;228843.41;;;25.60
68440;BMP180;55421;51.600;5.718;2022-08-19T13:26:35;228856.20;;;25.60
68440;BMP180;55421;51.600;5.718;2022-08-19T13:29:01;228820.20;;;25.56
68440;BMP180;55421;51.600;5.718;2022-08-19T13:31:46;228790.41;;;25.50
68440;BMP180;55421;51.600;5.718;2022-08-19T13:34:34;228759.20;;;25.42
68440;BMP180;55421;51.600;5.718;2022-08-19T13:37:04;228732.20;;;25.40
68440;BMP180;55421;51.600;5.718;2022-08-19T13:39:36;228717.41;;;25.38
68440;BMP180;55421;51.600;5.718;2022-08-19T13:42:03;228713.00;;;25.34
68440;BMP180;55421;51.600;5.718;2022-08-19T13:44:31;228710.59;;;25.40
68440;BMP180;55421;51.600;5.718;2022-08-19T13:47:03;228745.00;;;25.40
68440;BMP180;55421;51.600;5.718;2022-08-19T13:49:35;228776.00;;;25.50
68440;BMP180;55421;51.600;5.718;2022-08-19T13:52:04;228798.41;;;25.50
68440;BMP180;55421;51.600;5.718;2022-08-19T13:54:31;228790.41;;;25.50
68440;BMP180;55421;51.600;5.718;2022-08-19T13:56:58;228779.20;;;25.50
68440;BMP180;55421;51.600;5.718;2022-08-19T13:59:24;228773.20;;;25.50
68440;BMP180;55421;51.600;5.718;2022-08-19T14:01:51;228809.59;;;25.50
68440;BMP180;55421;51.600;5.718;2022-08-19T14:04:17;228828.00;;;25.60
68440;BMP180;55421;51.600;5.718;2022-08-19T14:06:44;228843.41;;;25.60
68440;BMP180;55421;51.600;5.718;2022-08-19T14:09:10;228869.00;;;25.60
68440;BMP180;55421;51.600;5.718;2022-08-19T14:11:36;228901.00;;;25.70
68440;BMP180;55421;51.600;5.718;2022-08-19T14:14:04;228926.20;;;25.70
68440;BMP180;55421;51.600;5.718;2022-08-19T14:16:30;228978.00;;;25.80